createdAt,value
2019-05-16T00:01:19.164Z,67
2019-05-16T00:06:49.215Z,67
2019-05-16T00:12:21.336Z,68
2019-05-16T00:17:53.337Z,69
2019-05-16T00:23:25.389Z,69
2019-05-16T00:28:58.870Z,68
2019-05-16T00:34:29.405Z,68
2019-05-16T00:40:01.444Z,69
2019-05-16T00:45:33.395Z,70
2019-05-16T00:51:07.651Z,70
2019-05-16T00:56:38.284Z,70
2019-05-16T01:02:09.352Z,70
2019-05-16T01:07:41.313Z,70
2019-05-16T01:13:13.332Z,70
2019-05-16T01:18:45.217Z,70
2019-05-16T01:24:18.750Z,70
2019-05-16T01:29:50.200Z,71
2019-05-16T01:35:22.899Z,71
2019-05-16T01:40:54.996Z,70
2019-05-16T01:46:28.430Z,71
2019-05-16T01:51:58.986Z,71
2019-05-16T01:57:30.875Z,75
2019-05-16T02:03:02.892Z,78
2019-05-16T02:08:34.728Z,78
2019-05-16T02:14:06.554Z,77
2019-05-16T02:19:38.600Z,77
2019-05-16T02:25:10.072Z,79
2019-05-16T02:30:42.264Z,79
2019-05-16T02:36:13.540Z,79
2019-05-16T02:41:46.116Z,79
2019-05-16T02:47:16.964Z,80
2019-05-16T02:52:51.357Z,80
2019-05-16T02:58:23.202Z,81
2019-05-16T03:03:52.204Z,81
2019-05-16T03:09:23.953Z,83
2019-05-16T03:14:55.622Z,82
2019-05-16T03:20:27.345Z,81
2019-05-16T03:26:00.893Z,80
2019-05-16T03:31:33.964Z,80
2019-05-16T03:37:04.479Z,80
2019-05-16T03:42:35.417Z,81
2019-05-16T03:48:11.611Z,81
2019-05-16T03:53:40.702Z,81
2019-05-16T03:59:13.172Z,80
2019-05-16T04:04:45.789Z,81
2019-05-16T04:10:21.334Z,82
2019-05-16T04:15:52.210Z,80
2019-05-16T04:21:23.358Z,78
2019-05-16T04:26:55.916Z,78
2019-05-16T04:32:31.412Z,77
2019-05-16T04:38:01.927Z,76
2019-05-16T04:43:33.567Z,76
2019-05-16T04:49:06.311Z,78
2019-05-16T04:54:41.791Z,77
2019-05-16T05:00:11.960Z,77
2019-05-16T05:05:44.683Z,77
2019-05-16T05:11:17.423Z,77
2019-05-16T05:16:50.684Z,75
2019-05-16T05:22:22.992Z,74
2019-05-16T05:27:55.996Z,73
2019-05-16T05:33:31.036Z,73
2019-05-16T05:39:11.046Z,75
2019-05-16T05:44:35.380Z,75
2019-05-16T05:50:10.837Z,75
2019-05-16T05:55:41.592Z,75
2019-05-16T06:01:14.700Z,74
2019-05-16T06:06:50.158Z,73
2019-05-16T06:12:21.434Z,73
2019-05-16T06:17:54.614Z,71
2019-05-16T06:23:30.773Z,71
2019-05-16T06:29:01.665Z,72
2019-05-16T06:34:35.209Z,72
2019-05-16T06:40:10.705Z,70
2019-05-16T06:45:41.978Z,71
2019-05-16T06:51:15.635Z,70
2019-05-16T06:56:50.933Z,71
2019-05-16T07:02:29.795Z,70
2019-05-16T07:07:56.933Z,71
2019-05-16T07:13:30.915Z,70
2019-05-16T07:19:04.856Z,70
2019-05-16T07:24:39.925Z,70
2019-05-16T07:30:12.683Z,69
2019-05-16T07:35:46.686Z,69
2019-05-16T07:41:20.652Z,69
2019-05-16T07:46:54.543Z,68
2019-05-16T07:52:30.939Z,67
2019-05-16T07:58:02.569Z,67
2019-05-16T08:03:36.775Z,68
2019-05-16T08:09:12.345Z,67
2019-05-16T08:14:44.688Z,67
2019-05-16T08:20:21.053Z,67
2019-05-16T08:25:52.644Z,66
2019-05-16T08:31:26.775Z,65
2019-05-16T08:37:01.300Z,65
2019-05-16T08:42:35.277Z,66
2019-05-16T08:48:11.471Z,62
2019-05-16T08:53:43.977Z,61
2019-05-16T08:59:21.367Z,61
2019-05-16T09:04:53.506Z,59
2019-05-16T09:16:01.049Z,59
2019-05-16T09:21:38.053Z,59
2019-05-16T09:27:12.638Z,59
2019-05-16T09:32:43.816Z,58
2019-05-16T09:38:22.991Z,58
2019-05-16T09:43:52.407Z,58
2019-05-16T09:49:26.659Z,59
2019-05-16T09:55:01.065Z,60
2019-05-16T10:00:37.317Z,58
2019-05-16T10:06:09.953Z,58
2019-05-16T10:11:44.528Z,59
2019-05-16T10:17:19.159Z,59
2019-05-16T10:22:53.689Z,60
2019-05-16T10:28:28.290Z,59
2019-05-16T10:34:02.963Z,58
2019-05-16T10:39:37.655Z,59
2019-05-16T10:45:12.317Z,58
2019-05-16T10:50:47.714Z,58
2019-05-16T10:56:21.610Z,59
2019-05-16T11:01:56.322Z,60
2019-05-16T11:07:30.627Z,58
2019-05-16T11:13:07.449Z,59
2019-05-16T11:18:39.897Z,59
2019-05-16T11:24:14.676Z,59
2019-05-16T11:29:53.766Z,59
2019-05-16T11:35:28.419Z,58
2019-05-16T11:41:03.167Z,58
2019-05-16T11:46:37.816Z,58
2019-05-16T11:52:12.533Z,58
2019-05-16T11:57:47.779Z,58
2019-05-16T12:03:22.267Z,58
2019-05-16T12:08:57.099Z,59
2019-05-16T12:14:31.659Z,59
2019-05-16T12:20:07.645Z,58
2019-05-16T12:25:40.566Z,60
2019-05-16T12:31:19.659Z,60
2019-05-16T12:36:56.558Z,58
2019-05-16T12:42:29.558Z,58
2019-05-16T12:48:06.713Z,58
2019-05-16T12:53:39.570Z,58
2019-05-16T12:59:18.504Z,58
2019-05-16T13:04:50.026Z,58
2019-05-16T13:10:26.961Z,58
2019-05-16T13:16:00.690Z,58
2019-05-16T13:21:38.033Z,58
2019-05-16T13:32:48.408Z,58
2019-05-16T13:38:23.964Z,58
2019-05-16T13:44:12.859Z,58
2019-05-16T13:49:33.844Z,58
2019-05-16T13:55:08.733Z,58
2019-05-16T14:00:43.678Z,57
2019-05-16T14:06:19.008Z,58
2019-05-16T14:11:56.354Z,57
2019-05-16T14:17:29.934Z,58
2019-05-16T14:23:08.009Z,56
2019-05-16T14:28:44.359Z,58
2019-05-16T14:34:17.945Z,57
2019-05-16T14:39:52.177Z,58
2019-05-16T14:45:27.753Z,57
2019-05-16T14:51:03.241Z,56
2019-05-16T14:56:38.912Z,53
2019-05-16T15:02:14.399Z,54
2019-05-16T15:07:50.164Z,55
2019-05-16T15:13:27.927Z,53
2019-05-16T15:19:01.554Z,55
2019-05-16T15:24:37.257Z,54
2019-05-16T15:30:12.289Z,57
2019-05-16T15:35:47.268Z,58
2019-05-16T15:41:22.212Z,56
2019-05-16T15:46:59.818Z,57
2019-05-16T15:52:32.731Z,58
2019-05-16T15:58:10.236Z,56
2019-05-16T16:03:43.134Z,57
2019-05-16T16:09:18.318Z,55
2019-05-16T16:14:54.070Z,57
2019-05-16T16:20:29.503Z,56
2019-05-16T16:26:06.946Z,57
2019-05-16T16:31:40.454Z,56
2019-05-16T16:37:16.770Z,57
2019-05-16T16:42:50.427Z,58
2019-05-16T16:48:26.574Z,57
2019-05-16T16:53:59.950Z,58
2019-05-16T16:59:37.032Z,58
2019-05-16T17:05:12.103Z,59
2019-05-16T17:10:47.572Z,60
2019-05-16T17:16:25.452Z,61
2019-05-16T17:22:11.021Z,60
2019-05-16T17:27:30.686Z,61
2019-05-16T17:33:07.524Z,62
2019-05-16T17:38:40.381Z,63
2019-05-16T17:44:15.163Z,61
2019-05-16T17:49:49.877Z,64
2019-05-16T17:55:26.860Z,64
2019-05-16T18:01:00.346Z,64
2019-05-16T18:06:33.357Z,65
2019-05-16T18:12:07.555Z,65
2019-05-16T18:17:41.317Z,63
2019-05-16T18:23:16.417Z,61
2019-05-16T18:28:48.977Z,62
2019-05-16T18:34:23.003Z,63
2019-05-16T18:39:56.864Z,63
2019-05-16T18:45:30.507Z,63
2019-05-16T18:51:06.445Z,63
2019-05-16T18:56:37.393Z,66
2019-05-16T19:02:10.356Z,67
2019-05-16T19:07:42.957Z,66
2019-05-16T19:13:16.794Z,66
2019-05-16T19:18:48.306Z,69
2019-05-16T19:24:20.931Z,68
2019-05-16T19:29:53.455Z,67
2019-05-16T19:35:27.413Z,68
2019-05-16T19:40:58.507Z,68
2019-05-16T19:46:31.014Z,68
2019-05-16T19:52:03.573Z,69
2019-05-16T19:57:37.362Z,70
2019-05-16T20:03:08.531Z,75
2019-05-16T20:08:40.929Z,75
2019-05-16T20:14:13.299Z,74
2019-05-16T20:19:47.036Z,74
2019-05-16T20:25:18.031Z,75
2019-05-16T20:30:50.348Z,75
2019-05-16T20:36:22.733Z,75
2019-05-16T20:41:56.890Z,75
2019-05-16T20:47:27.421Z,75
2019-05-16T20:52:59.736Z,75
2019-05-16T20:58:32.013Z,75
2019-05-16T21:04:06.461Z,75
2019-05-16T21:09:36.950Z,75
2019-05-16T21:15:09.421Z,75
2019-05-16T21:20:42.602Z,76
2019-05-16T21:26:15.719Z,76
2019-05-16T21:31:48.842Z,77
2019-05-16T21:37:21.970Z,76
2019-05-16T21:42:58.253Z,77
2019-05-16T21:48:28.132Z,78
2019-05-16T21:54:01.164Z,79
2019-05-16T21:59:34.219Z,80
2019-05-16T22:05:07.240Z,79
2019-05-16T22:10:40.244Z,80
2019-05-16T22:16:13.256Z,80
2019-05-16T22:21:46.196Z,80
2019-05-16T22:27:19.249Z,80
2019-05-16T22:32:52.148Z,78
2019-05-16T22:38:26.228Z,76
2019-05-16T22:43:56.510Z,76
2019-05-16T22:49:29.441Z,77
2019-05-16T22:55:02.479Z,79
2019-05-16T23:00:38.033Z,80
2019-05-16T23:06:08.479Z,78
2019-05-16T23:11:41.436Z,80
2019-05-16T23:17:14.439Z,79
2019-05-16T23:22:47.386Z,80
2019-05-16T23:28:20.435Z,82
2019-05-16T23:33:53.330Z,80
2019-05-16T23:39:26.385Z,82
2019-05-16T23:44:59.186Z,82
2019-05-16T23:50:32.097Z,82
2019-05-16T23:56:07.166Z,83
